createdAt,value
2022-09-07T00:02:58.358Z,52.75
2022-09-07T00:06:25.617Z,52.76
2022-09-07T00:09:52.928Z,52.78
2022-09-07T00:13:20.141Z,52.87
2022-09-07T00:16:47.270Z,52.89
2022-09-07T00:20:15.356Z,52.95
2022-09-07T00:23:42.682Z,53.03
2022-09-07T00:27:11.585Z,53.21
2022-09-07T00:30:44.018Z,53.19
2022-09-07T00:34:10.967Z,53.35
2022-09-07T00:37:37.967Z,53.45
2022-09-07T00:41:06.043Z,53.47
2022-09-07T00:45:10.268Z,53.69
2022-09-07T00:48:40.719Z,53.56
2022-09-07T00:52:10.887Z,53.84
2022-09-07T00:55:40.037Z,53.77
2022-09-07T00:59:08.008Z,53.74
2022-09-07T01:02:35.582Z,53.89
2022-09-07T01:06:07.130Z,53.92
2022-09-07T01:09:34.091Z,53.89
2022-09-07T01:13:01.252Z,53.75
2022-09-07T01:16:44.008Z,54.00
2022-09-07T01:20:41.636Z,54.03
2022-09-07T01:24:50.328Z,54.02
2022-09-07T01:28:22.030Z,54.23
2022-09-07T01:31:58.951Z,53.98
2022-09-07T01:35:33.245Z,54.11
2022-09-07T01:39:03.894Z,54.38
2022-09-07T01:42:36.381Z,54.53
2022-09-07T01:46:07.238Z,54.66
2022-09-07T01:49:41.633Z,54.63
2022-09-07T01:53:18.311Z,54.65
2022-09-07T01:56:48.458Z,54.66
2022-09-07T02:00:20.572Z,54.63
2022-09-07T02:04:00.827Z,55.03
2022-09-07T02:07:36.430Z,55.17
2022-09-07T02:11:07.073Z,55.24
2022-09-07T02:14:39.456Z,55.13
2022-09-07T02:18:09.486Z,55.40
2022-09-07T02:21:42.700Z,55.29
2022-09-07T02:25:15.573Z,55.15
2022-09-07T02:28:42.834Z,55.56
2022-09-07T02:32:09.985Z,55.53
2022-09-07T02:35:37.448Z,55.68
2022-09-07T02:39:04.405Z,55.76
2022-09-07T02:42:33.731Z,56.04
2022-09-07T02:46:17.299Z,56.05
2022-09-07T02:50:13.080Z,56.11
2022-09-07T02:54:01.810Z,55.85
2022-09-07T02:57:36.212Z,56.29
2022-09-07T03:01:10.251Z,56.56
2022-09-07T03:04:47.804Z,56.45
2022-09-07T03:08:17.968Z,56.54
2022-09-07T03:11:44.820Z,56.52
2022-09-07T03:15:14.550Z,56.63
2022-09-07T03:18:41.404Z,56.44
2022-09-07T03:22:08.661Z,56.42
2022-09-07T03:25:35.701Z,56.50
2022-09-07T03:29:02.890Z,56.35
2022-09-07T03:32:33.464Z,56.70
2022-09-07T03:36:04.777Z,56.93
2022-09-07T03:39:32.179Z,56.98
2022-09-07T03:42:59.021Z,57.11
2022-09-07T03:46:26.188Z,57.11
2022-09-07T03:49:53.095Z,57.26
2022-09-07T03:53:19.981Z,57.18
2022-09-07T03:56:46.805Z,57.03
2022-09-07T04:00:16.383Z,57.04
2022-09-07T04:03:43.913Z,56.97
2022-09-07T04:07:11.205Z,57.09
2022-09-07T04:10:43.077Z,57.44
2022-09-07T04:14:10.164Z,57.61
2022-09-07T04:17:37.929Z,57.56
2022-09-07T04:21:05.063Z,57.74
2022-09-07T04:24:32.622Z,57.86
2022-09-07T04:28:00.397Z,57.98
2022-09-07T04:31:27.659Z,57.96
2022-09-07T04:34:55.084Z,58.09
2022-09-07T04:38:21.857Z,58.02
2022-09-07T04:41:48.646Z,58.31
2022-09-07T04:45:16.942Z,58.01
2022-09-07T04:48:50.695Z,58.16
2022-09-07T04:52:16.093Z,58.35
2022-09-07T04:55:43.049Z,58.41
2022-09-07T04:59:10.337Z,58.38
2022-09-07T05:02:38.217Z,58.44
2022-09-07T05:06:06.260Z,58.43
2022-09-07T05:09:33.441Z,58.15
2022-09-07T05:13:00.853Z,58.26
2022-09-07T05:16:28.938Z,58.62
2022-09-07T05:19:56.338Z,58.66
2022-09-07T05:23:24.721Z,58.59
2022-09-07T05:26:51.664Z,58.69
2022-09-07T05:37:54.203Z,58.93
2022-09-07T05:41:22.399Z,58.87
2022-09-07T05:44:49.767Z,59.42
2022-09-07T05:48:17.578Z,59.16
2022-09-07T05:51:44.882Z,59.33
2022-09-07T05:55:28.805Z,59.01
2022-09-07T05:58:57.787Z,59.01
2022-09-07T06:02:25.099Z,58.89
2022-09-07T06:06:00.265Z,58.76
2022-09-07T06:09:30.668Z,58.73
2022-09-07T06:13:00.307Z,58.73
2022-09-07T06:16:29.276Z,58.80
2022-09-07T06:19:59.976Z,58.73
2022-09-07T06:23:27.892Z,58.72
2022-09-07T06:26:55.268Z,58.64
2022-09-07T06:30:25.703Z,58.51
2022-09-07T06:33:53.665Z,58.51
2022-09-07T06:37:20.522Z,58.40
2022-09-07T06:40:48.250Z,58.35
2022-09-07T06:44:15.345Z,58.04
2022-09-07T06:47:43.278Z,58.20
2022-09-07T06:51:15.363Z,57.95
2022-09-07T06:54:58.828Z,57.94
2022-09-07T06:58:26.665Z,57.85
2022-09-07T07:01:55.304Z,57.63
2022-09-07T07:05:22.622Z,57.60
2022-09-07T07:08:49.532Z,57.54
2022-09-07T07:15:42.012Z,57.24
2022-09-07T07:19:08.853Z,56.98
2022-09-07T07:22:52.246Z,56.91
2022-09-07T07:26:22.483Z,56.69
2022-09-07T07:29:50.259Z,56.81
2022-09-07T07:33:17.468Z,56.53
2022-09-07T07:36:44.853Z,56.28
2022-09-07T07:40:16.745Z,56.10
2022-09-07T07:43:46.606Z,55.82
2022-09-07T07:47:16.327Z,55.67
2022-09-07T07:50:44.813Z,55.33
2022-09-07T07:54:14.772Z,55.39
2022-09-07T07:57:42.599Z,55.07
2022-09-07T08:01:12.246Z,54.65
2022-09-07T08:04:38.982Z,54.35
2022-09-07T08:08:06.291Z,54.45
2022-09-07T08:11:35.320Z,54.13
2022-09-07T08:15:03.868Z,54.02
2022-09-07T08:18:31.352Z,53.82
2022-09-07T08:21:58.285Z,53.55
2022-09-07T08:25:25.698Z,53.41
2022-09-07T08:28:52.842Z,53.04
2022-09-07T08:32:19.849Z,52.92
2022-09-07T08:35:55.023Z,52.72
2022-09-07T08:39:23.546Z,52.62
2022-09-07T08:43:01.704Z,52.35
2022-09-07T08:46:35.487Z,52.27
2022-09-07T08:50:08.377Z,51.92
2022-09-07T08:53:37.887Z,51.76
2022-09-07T08:57:21.877Z,51.52
2022-09-07T09:00:47.035Z,51.47
2022-09-07T09:04:23.290Z,51.24
2022-09-07T09:08:03.782Z,50.86
2022-09-07T09:11:45.320Z,50.74
2022-09-07T09:15:23.292Z,50.71
2022-09-07T09:19:20.749Z,50.49
2022-09-07T09:22:53.743Z,50.19
2022-09-07T09:26:25.548Z,49.86
2022-09-07T09:29:52.400Z,49.69
2022-09-07T09:33:23.559Z,49.46
2022-09-07T09:36:53.310Z,49.05
2022-09-07T09:40:29.369Z,48.84
2022-09-07T09:44:02.801Z,48.36
2022-09-07T09:47:34.188Z,48.11
2022-09-07T09:55:03.404Z,47.64
2022-09-07T10:06:21.313Z,46.80
2022-09-07T10:09:53.945Z,46.55
2022-09-07T10:13:25.709Z,46.34
2022-09-07T10:16:53.119Z,45.87
2022-09-07T10:20:35.199Z,45.63
2022-09-07T10:24:15.199Z,45.31
2022-09-07T10:27:42.150Z,44.90
2022-09-07T10:31:17.893Z,44.62
2022-09-07T10:34:58.479Z,44.30
2022-09-07T10:38:26.370Z,44.07
2022-09-07T10:42:01.000Z,44.12
2022-09-07T10:45:37.925Z,43.83
2022-09-07T10:49:20.325Z,43.42
2022-09-07T10:52:52.984Z,43.01
2022-09-07T10:56:23.862Z,42.52
2022-09-07T11:00:11.704Z,42.39
2022-09-07T11:03:58.616Z,42.38
2022-09-07T11:07:39.762Z,42.00
2022-09-07T11:11:15.734Z,41.57
2022-09-07T11:14:49.717Z,41.25
2022-09-07T11:18:22.110Z,41.10
2022-09-07T11:22:02.537Z,40.99
2022-09-07T11:25:35.639Z,40.64
2022-09-07T11:33:05.126Z,40.09
2022-09-07T11:36:37.765Z,40.00
2022-09-07T11:40:16.112Z,39.80
2022-09-07T11:43:47.113Z,39.53
2022-09-07T11:47:22.634Z,39.54
2022-09-07T11:50:54.566Z,39.27
2022-09-07T11:54:40.873Z,39.34
2022-09-07T11:58:34.085Z,38.77
2022-09-07T12:02:17.680Z,38.54
2022-09-07T12:06:16.913Z,38.11
2022-09-07T12:10:10.202Z,37.84
2022-09-07T12:14:12.135Z,37.79
2022-09-07T12:17:54.595Z,37.43
2022-09-07T12:21:39.470Z,37.38
2022-09-07T12:25:19.843Z,37.28
2022-09-07T12:29:30.252Z,37.07
2022-09-07T12:33:28.762Z,37.09
2022-09-07T12:37:06.044Z,37.09
2022-09-07T12:41:02.521Z,37.09
2022-09-07T12:44:31.247Z,37.02
2022-09-07T12:48:06.125Z,36.72
2022-09-07T13:00:05.391Z,36.02
2022-09-07T13:04:20.463Z,35.90
2022-09-07T13:08:09.329Z,35.90
2022-09-07T13:11:40.231Z,35.40
2022-09-07T13:15:14.612Z,35.21
2022-09-07T13:18:47.853Z,34.71
2022-09-07T13:22:44.128Z,34.69
2022-09-07T13:26:36.690Z,34.39
2022-09-07T13:30:21.268Z,34.07
2022-09-07T13:33:53.034Z,34.03
2022-09-07T13:37:24.438Z,33.56
2022-09-07T13:40:54.261Z,33.08
2022-09-07T13:44:26.955Z,33.02
2022-09-07T13:48:05.413Z,32.96
2022-09-07T13:51:39.698Z,32.76
2022-09-07T13:55:25.865Z,32.74
2022-09-07T13:58:55.400Z,32.46
2022-09-07T14:02:30.786Z,31.94
2022-09-07T14:06:31.951Z,31.84
2022-09-07T14:10:19.782Z,31.66
2022-09-07T14:13:54.614Z,31.26
2022-09-07T14:17:22.503Z,31.26
2022-09-07T14:20:52.447Z,31.27
2022-09-07T14:24:29.838Z,30.91
2022-09-07T14:28:05.030Z,30.68
2022-09-07T14:31:30.958Z,30.73
2022-09-07T14:34:58.458Z,30.71
2022-09-07T14:42:23.136Z,30.42
2022-09-07T14:45:51.097Z,30.30
2022-09-07T14:49:25.985Z,30.24
2022-09-07T14:57:01.409Z,29.95
2022-09-07T15:00:34.292Z,29.91
2022-09-07T15:04:03.594Z,30.22
2022-09-07T15:07:42.787Z,30.06
2022-09-07T15:15:10.560Z,30.36
2022-09-07T15:19:01.246Z,30.28
2022-09-07T15:22:28.096Z,30.11
2022-09-07T15:25:55.165Z,30.50
2022-09-07T15:29:24.159Z,30.45
2022-09-07T15:32:52.716Z,30.37
2022-09-07T15:36:20.446Z,30.56
2022-09-07T15:39:47.717Z,30.58
2022-09-07T15:43:20.644Z,30.58
2022-09-07T15:50:39.041Z,30.82
2022-09-07T15:54:13.435Z,30.93
2022-09-07T15:57:51.250Z,31.09
2022-09-07T16:05:14.019Z,31.25
2022-09-07T16:08:41.669Z,31.33
2022-09-07T16:16:10.197Z,31.41
2022-09-07T16:19:41.909Z,31.52
2022-09-07T16:23:16.445Z,31.74
2022-09-07T16:26:46.466Z,31.84
2022-09-07T16:30:14.697Z,31.97
2022-09-07T16:33:41.649Z,32.01
2022-09-07T16:37:11.257Z,32.06
2022-09-07T16:40:42.026Z,32.19
2022-09-07T16:44:08.547Z,32.21
2022-09-07T16:47:35.339Z,32.30
2022-09-07T16:51:03.023Z,32.34
2022-09-07T16:54:29.822Z,32.43
2022-09-07T17:01:43.381Z,32.67
2022-09-07T17:05:14.208Z,32.73
2022-09-07T17:08:45.467Z,32.86
2022-09-07T17:12:13.736Z,32.97
2022-09-07T17:15:40.511Z,33.15
2022-09-07T17:24:54.805Z,33.60
2022-09-07T17:28:22.209Z,33.67
2022-09-07T17:32:30.194Z,33.83
2022-09-07T17:36:05.945Z,34.00
2022-09-07T17:39:33.078Z,34.15
2022-09-07T17:46:48.167Z,34.40
2022-09-07T17:50:15.160Z,34.54
2022-09-07T17:53:45.587Z,34.61
2022-09-07T17:57:12.645Z,34.70
2022-09-07T18:00:52.801Z,34.79
2022-09-07T18:04:19.615Z,34.97
2022-09-07T18:07:48.767Z,35.16
2022-09-07T18:15:07.196Z,35.47
2022-09-07T18:18:35.865Z,35.53
2022-09-07T18:22:06.684Z,35.66
2022-09-07T18:25:33.755Z,35.78
2022-09-07T18:29:03.819Z,35.90
2022-09-07T18:32:33.800Z,35.94
2022-09-07T18:36:00.694Z,36.13
2022-09-07T18:39:28.299Z,36.25
2022-09-07T18:42:57.673Z,36.37
2022-09-07T18:46:26.534Z,36.51
2022-09-07T18:49:54.873Z,36.58
2022-09-07T18:53:22.603Z,36.81
2022-09-07T18:56:49.579Z,36.95
2022-09-07T19:00:17.956Z,37.16
2022-09-07T19:03:46.020Z,37.29
2022-09-07T19:07:29.418Z,37.51
2022-09-07T19:10:58.185Z,37.65
2022-09-07T19:14:27.941Z,37.84
2022-09-07T19:17:55.451Z,37.90
2022-09-07T19:21:24.543Z,38.01
2022-09-07T19:24:57.593Z,38.20
2022-09-07T19:28:27.179Z,38.32
2022-09-07T19:32:07.938Z,38.41
2022-09-07T19:35:39.516Z,38.66
2022-09-07T19:39:06.986Z,38.75
2022-09-07T19:42:34.008Z,38.90
2022-09-07T19:46:01.068Z,38.93
2022-09-07T19:49:28.467Z,39.16
2022-09-07T19:52:56.337Z,39.26
2022-09-07T19:56:23.024Z,39.37
2022-09-07T19:59:53.040Z,39.33
2022-09-07T20:03:30.303Z,39.47
2022-09-07T20:07:02.071Z,39.82
2022-09-07T20:10:29.421Z,39.81
2022-09-07T20:13:58.557Z,39.93
2022-09-07T20:17:34.962Z,40.23
2022-09-07T20:21:13.755Z,40.52
2022-09-07T20:24:48.348Z,40.60
2022-09-07T20:28:36.108Z,40.81
2022-09-07T20:32:05.494Z,40.81
2022-09-07T20:35:36.407Z,40.88
2022-09-07T20:39:04.747Z,41.20
2022-09-07T20:42:38.161Z,41.25
2022-09-07T20:46:10.599Z,41.47
2022-09-07T20:49:38.239Z,41.66
2022-09-07T20:53:08.435Z,41.59
2022-09-07T20:56:45.927Z,41.76
2022-09-07T21:00:16.878Z,41.81
2022-09-07T21:03:49.372Z,41.76
2022-09-07T21:07:21.921Z,42.01
2022-09-07T21:10:51.498Z,42.04
2022-09-07T21:14:22.578Z,42.21
2022-09-07T21:17:49.631Z,42.23
2022-09-07T21:21:19.819Z,42.41
2022-09-07T21:24:49.575Z,42.77
2022-09-07T21:28:16.300Z,42.80
2022-09-07T21:31:43.744Z,43.16
2022-09-07T21:35:12.861Z,43.35
2022-09-07T21:38:41.523Z,43.47
2022-09-07T21:42:10.666Z,43.31
2022-09-07T21:45:45.664Z,43.56
2022-09-07T21:49:12.883Z,43.68
2022-09-07T21:52:41.654Z,43.89
2022-09-07T21:56:12.932Z,43.95
2022-09-07T21:59:42.628Z,43.94
2022-09-07T22:03:10.273Z,44.01
2022-09-07T22:06:38.004Z,44.20
2022-09-07T22:10:05.620Z,44.00
2022-09-07T22:13:33.517Z,44.03
2022-09-07T22:17:00.992Z,44.18
2022-09-07T22:20:31.493Z,44.22
2022-09-07T22:24:02.014Z,44.40
2022-09-07T22:27:28.760Z,44.43
2022-09-07T22:31:09.040Z,44.42
2022-09-07T22:34:37.643Z,44.61
2022-09-07T22:38:04.582Z,44.62
2022-09-07T22:41:33.122Z,44.94
2022-09-07T22:45:00.249Z,44.78
2022-09-07T22:48:30.721Z,44.93
2022-09-07T22:51:58.210Z,44.95
2022-09-07T22:55:25.494Z,45.23
2022-09-07T22:58:56.076Z,45.36
2022-09-07T23:02:23.072Z,45.43
2022-09-07T23:05:50.491Z,45.40
2022-09-07T23:09:19.178Z,45.64
2022-09-07T23:12:46.146Z,45.58
2022-09-07T23:16:13.655Z,45.54
2022-09-07T23:19:40.346Z,46.01
2022-09-07T23:23:07.950Z,46.07
2022-09-07T23:26:35.684Z,46.15
2022-09-07T23:30:02.878Z,46.11
2022-09-07T23:33:30.696Z,46.15
2022-09-07T23:36:58.085Z,46.22
2022-09-07T23:40:24.880Z,46.59
2022-09-07T23:43:52.537Z,46.45
2022-09-07T23:47:19.759Z,46.61
2022-09-07T23:50:48.177Z,46.75
2022-09-07T23:54:18.978Z,46.60
2022-09-07T23:57:45.868Z,46.65
